Time;durP1;ratioP1;P1;durP2;ratioP2;P2;SDS_P1;SDS_P2;PMS_P1;PMS_P2;Temp;Humidity;BMP_temperature;BMP_pressure;BME280_temperature;BME280_humidity;BME280_pressure;Samples;Min_cycle;Max_cycle;Signal;HPM_P1;HPM_P2
2022/04/18 00:01:04;;;;;;;2.63;2.42;;;10.40;46.90;;;;;;5055416;28;20112;-47
2022/04/18 00:03:36;;;;;;;3.00;2.67;;;10.30;47.00;;;;;;5057157;28;20037;-50
2022/04/18 00:06:03;;;;;;;3.33;2.85;;;10.30;47.50;;;;;;5063542;28;20036;-50
2022/04/18 00:08:32;;;;;;;5.10;2.78;;;10.30;47.30;;;;;;5065836;28;20094;-50
2022/04/18 00:10:59;;;;;;;2.60;2.40;;;10.20;47.40;;;;;;5050714;28;20103;-49
2022/04/18 00:13:28;;;;;;;3.03;2.60;;;10.20;47.50;;;;;;5065323;28;20052;-49
2022/04/18 00:15:55;;;;;;;4.13;2.80;;;10.10;47.50;;;;;;5054972;28;20036;-49
2022/04/18 00:18:30;;;;;;;2.88;2.67;;;10.10;47.60;;;;;;5060294;28;20070;-53
2022/04/18 00:21:03;;;;;;;3.38;3.08;;;10.10;47.50;;;;;;5067272;28;20032;-46
2022/04/18 00:23:30;;;;;;;3.08;2.78;;;10.10;47.60;;;;;;5061523;28;20040;-48
2022/04/18 00:25:56;;;;;;;5.30;3.08;;;10.10;47.70;;;;;;5068679;28;20090;-48
2022/04/18 00:28:23;;;;;;;5.70;3.30;;;10.00;47.70;;;;;;5065080;28;20098;-48
2022/04/18 00:30:50;;;;;;;4.43;2.95;;;10.00;48.10;;;;;;5050277;28;20072;-49
2022/04/18 00:33:17;;;;;;;3.58;3.28;;;10.00;47.90;;;;;;5060328;28;20067;-51
2022/04/18 00:35:50;;;;;;;4.45;3.67;;;9.90;47.90;;;;;;5067420;28;20052;-50
2022/04/18 00:38:20;;;;;;;5.40;3.38;;;9.90;48.00;;;;;;5065278;28;20047;-52
2022/04/18 00:40:46;;;;;;;3.80;3.50;;;9.90;48.50;;;;;;5049583;28;20094;-47
2022/04/18 00:43:15;;;;;;;4.53;3.25;;;9.80;48.10;;;;;;5060103;28;20547;-49
2022/04/18 00:45:46;;;;;;;3.72;3.08;;;9.80;48.20;;;;;;5050038;28;20123;-50
2022/04/18 00:48:13;;;;;;;4.30;3.03;;;9.80;48.30;;;;;;5047151;28;20051;-48
2022/04/18 00:50:40;;;;;;;4.18;3.80;;;9.80;48.30;;;;;;5063795;28;20857;-47
2022/04/18 00:53:07;;;;;;;2.78;2.58;;;9.70;48.30;;;;;;5047178;28;20539;-50
2022/04/18 00:55:40;;;;;;;3.38;2.90;;;9.70;48.40;;;;;;5047822;28;20073;-52
2022/04/18 00:58:07;;;;;;;3.13;2.83;;;9.70;48.40;;;;;;5057771;28;20056;-49
2022/04/18 01:00:34;;;;;;;4.78;3.20;;;9.70;48.40;;;;;;5068366;28;20036;-50
2022/04/18 01:03:01;;;;;;;2.97;2.45;;;9.70;48.50;;;;;;5042681;28;20135;-47
2022/04/18 01:05:29;;;;;;;2.97;2.75;;;9.60;49.10;;;;;;5041207;28;20512;-46
2022/04/18 01:07:57;;;;;;;2.92;2.55;;;9.60;48.60;;;;;;5044270;28;20040;-50
2022/04/18 01:10:26;;;;;;;3.05;2.60;;;9.60;48.70;;;;;;5031400;28;20041;-47
2022/04/18 01:12:53;;;;;;;4.88;2.70;;;9.60;48.60;;;;;;5035701;28;20040;-48
2022/04/18 01:15:41;;;;;;;3.85;2.97;;;9.50;48.60;;;;;;5035077;28;20099;-49
2022/04/18 01:18:12;;;;;;;4.32;2.25;;;9.50;48.60;;;;;;5044935;28;20049;-47
2022/04/18 01:21:01;;;;;;;4.93;3.20;;;9.50;48.50;;;;;;5061347;28;20538;-49
2022/04/18 01:23:59;;;;;;;3.88;3.05;;;9.50;48.60;;;;;;5030418;28;20139;-51
2022/04/18 01:29:32;;;;;;;4.18;2.97;;;9.40;48.40;;;;;;5059110;28;20105;-49
2022/04/18 01:32:01;;;;;;;4.10;3.60;;;9.40;48.50;;;;;;5053068;28;20040;-48
2022/04/18 01:34:29;;;;;;;5.43;2.97;;;9.30;48.80;;;;;;5048794;28;20045;-52
2022/04/18 01:37:01;;;;;;;3.90;3.42;;;9.30;48.70;;;;;;5054793;28;20126;-49
2022/04/18 01:39:30;;;;;;;4.45;3.47;;;9.30;48.90;;;;;;5059908;28;20052;-52
2022/04/18 01:41:57;;;;;;;4.32;2.92;;;9.20;48.90;;;;;;5034320;28;20063;-48
2022/04/18 01:44:31;;;;;;;3.60;3.30;;;9.20;48.90;;;;;;5042891;28;20066;-51
2022/04/18 01:46:57;;;;;;;5.50;3.60;;;9.20;49.10;;;;;;5054801;28;20106;-46
2022/04/18 01:49:29;;;;;;;4.75;3.78;;;9.10;49.00;;;;;;5062958;28;20032;-49
2022/04/18 01:51:58;;;;;;;5.47;3.25;;;9.10;49.10;;;;;;5053458;28;20479;-51
2022/04/18 01:54:25;;;;;;;5.05;3.28;;;9.10;49.50;;;;;;5066930;28;20044;-48
2022/04/18 01:56:54;;;;;;;5.70;3.10;;;9.00;49.20;;;;;;5046825;28;20459;-48
2022/04/18 01:59:26;;;;;;;4.50;3.65;;;9.00;49.30;;;;;;5049975;28;20048;-50
2022/04/18 02:01:56;;;;;;;4.32;3.22;;;9.00;49.60;;;;;;5066101;28;20526;-47
2022/04/18 02:04:23;;;;;;;5.43;3.85;;;9.00;49.60;;;;;;5042975;28;20083;-48
2022/04/18 02:06:52;;;;;;;4.97;3.67;;;9.00;49.40;;;;;;5053119;28;20041;-51
2022/04/18 02:09:19;;;;;;;4.45;3.20;;;8.90;49.70;;;;;;5033180;28;20040;-48
2022/04/18 02:11:46;;;;;;;3.97;3.38;;;8.90;49.40;;;;;;5047308;28;20040;-46
2022/04/18 02:14:16;;;;;;;5.07;3.50;;;8.90;49.50;;;;;;5036255;28;20397;-51
2022/04/18 02:16:43;;;;;;;4.75;3.50;;;8.80;49.50;;;;;;5033384;28;20045;-47
2022/04/18 02:19:15;;;;;;;3.70;3.38;;;8.80;49.60;;;;;;5032994;28;20091;-46
2022/04/18 02:21:44;;;;;;;4.35;3.55;;;8.80;49.60;;;;;;5045289;28;20044;-52
2022/04/18 02:24:14;;;;;;;3.83;2.85;;;8.70;49.60;;;;;;5044410;28;20463;-51
2022/04/18 02:26:40;;;;;;;5.15;3.80;;;8.70;49.70;;;;;;5053223;28;20048;-51
2022/04/18 02:29:11;;;;;;;4.65;3.50;;;8.70;49.80;;;;;;5053746;28;20048;-47
2022/04/18 02:34:26;;;;;;;3.13;2.80;;;8.70;49.90;;;;;;5048083;28;20131;-48
2022/04/18 02:36:59;;;;;;;4.40;3.20;;;8.60;49.80;;;;;;5034041;28;20049;-46
2022/04/18 02:39:30;;;;;;;2.75;2.53;;;8.60;49.90;;;;;;5035140;28;20069;-49
2022/04/18 02:41:57;;;;;;;4.53;2.72;;;8.60;49.90;;;;;;5052018;28;20049;-48
2022/04/18 02:44:35;;;;;;;4.47;3.20;;;8.60;50.00;;;;;;5044091;28;20046;-49
2022/04/18 02:47:02;;;;;;;5.50;3.08;;;8.50;50.00;;;;;;5049693;28;20091;-49
2022/04/18 02:49:31;;;;;;;3.60;3.03;;;8.50;50.00;;;;;;5048075;28;20135;-47
2022/04/18 02:52:06;;;;;;;3.38;2.63;;;8.50;50.10;;;;;;5053598;28;20050;-47
2022/04/18 02:54:33;;;;;;;3.53;2.80;;;8.50;50.50;;;;;;5040683;28;20041;-47
2022/04/18 02:56:59;;;;;;;4.35;2.58;;;8.40;50.20;;;;;;5050842;28;20049;-46
2022/04/18 02:59:29;;;;;;;3.70;3.08;;;8.40;50.30;;;;;;5041066;28;20048;-47
2022/04/18 03:01:56;;;;;;;3.47;2.65;;;8.40;50.40;;;;;;5040418;28;20078;-46
2022/04/18 03:04:25;;;;;;;4.22;2.83;;;8.40;50.40;;;;;;5058631;28;20119;-47
2022/04/18 03:06:52;;;;;;;3.58;3.05;;;8.30;50.40;;;;;;5058597;28;20094;-49
2022/04/18 03:09:19;;;;;;;3.72;2.50;;;8.40;50.50;;;;;;5045527;28;20124;-46
2022/04/18 03:11:53;;;;;;;6.13;3.13;;;8.30;50.50;;;;;;5040637;28;20048;-49
2022/04/18 03:14:21;;;;;;;4.63;3.53;;;8.30;50.50;;;;;;5055277;28;20045;-48
2022/04/18 03:17:03;;;;;;;3.80;3.28;;;8.30;50.60;;;;;;5062053;28;20032;-48
2022/04/18 03:19:38;;;;;;;4.85;3.20;;;8.30;50.60;;;;;;5047700;28;20037;-49
2022/04/18 03:22:07;;;;;;;3.67;3.28;;;8.30;50.60;;;;;;5048262;28;20769;-47
2022/04/18 03:24:37;;;;;;;5.97;3.20;;;8.20;50.60;;;;;;5048867;28;20128;-47
2022/04/18 03:27:13;;;;;;;4.15;3.47;;;8.20;50.60;;;;;;5050541;28;20048;-49
2022/04/18 03:29:42;;;;;;;5.72;3.60;;;8.20;50.70;;;;;;5063452;28;20469;-50
2022/04/18 03:32:16;;;;;;;3.35;3.05;;;8.20;50.70;;;;;;5042623;28;20505;-46
2022/04/18 03:34:43;;;;;;;5.38;3.10;;;8.20;50.70;;;;;;5058105;28;20044;-49
2022/04/18 03:40:01;;;;;;;5.28;3.30;;;8.10;50.80;;;;;;5040665;28;20513;-48
2022/04/18 03:42:30;;;;;;;4.35;3.30;;;8.10;51.00;;;;;;5039875;28;20722;-51
2022/04/18 03:45:02;;;;;;;4.38;3.15;;;8.00;50.80;;;;;;5041538;28;20045;-48
2022/04/18 03:47:29;;;;;;;3.40;2.65;;;8.00;50.80;;;;;;5045745;28;20041;-50
2022/04/18 03:49:59;;;;;;;3.72;3.17;;;8.00;50.90;;;;;;5042869;28;20055;-46
2022/04/18 03:52:26;;;;;;;4.32;3.35;;;8.00;50.90;;;;;;5070251;28;20052;-50
2022/04/18 03:54:57;;;;;;;4.03;3.63;;;7.90;50.90;;;;;;5045411;28;20519;-48
2022/04/18 03:57:34;;;;;;;4.63;3.40;;;7.90;50.80;;;;;;5039217;28;20064;-47
2022/04/18 04:00:06;;;;;;;5.15;3.78;;;7.90;51.00;;;;;;5031632;28;20045;-50
2022/04/18 04:02:39;;;;;;;4.03;3.13;;;7.90;51.00;;;;;;5056237;28;20102;-51
2022/04/18 04:05:08;;;;;;;4.45;3.53;;;7.80;51.00;;;;;;5047686;28;20048;-46
2022/04/18 04:07:36;;;;;;;5.00;3.30;;;7.80;51.10;;;;;;5062344;28;20090;-48
2022/04/18 04:10:35;;;;;;;5.07;2.78;;;7.80;51.20;;;;;;5017766;28;20040;-49
2022/04/18 04:13:06;;;;;;;3.58;2.80;;;7.80;51.10;;;;;;5040535;28;20463;-52
2022/04/18 04:15:39;;;;;;;5.63;2.65;;;7.70;51.10;;;;;;5062076;28;20051;-46
2022/04/18 04:18:14;;;;;;;4.20;3.17;;;7.70;51.20;;;;;;5040852;28;20666;-50
2022/04/18 04:20:44;;;;;;;4.57;3.55;;;7.70;51.30;;;;;;5042477;28;20484;-45
2022/04/18 04:23:17;;;;;;;5.35;2.90;;;7.60;51.40;;;;;;5046544;28;20056;-46
2022/04/18 04:26:03;;;;;;;4.30;3.17;;;7.60;51.50;;;;;;5042432;28;20119;-50
2022/04/18 04:28:45;;;;;;;5.28;3.45;;;7.60;51.40;;;;;;5042605;28;20048;-47
2022/04/18 04:31:16;;;;;;;4.45;3.25;;;7.60;51.40;;;;;;5045489;28;20072;-49
2022/04/18 04:33:43;;;;;;;4.65;3.53;;;7.50;51.40;;;;;;5047556;28;20052;-47
2022/04/18 04:36:12;;;;;;;5.05;3.42;;;7.50;51.50;;;;;;5042052;28;20041;-47
2022/04/18 04:38:41;;;;;;;5.53;3.97;;;7.50;51.60;;;;;;5050811;28;20411;-47
2022/04/18 04:41:20;;;;;;;4.57;3.55;;;7.50;51.70;;;;;;5046801;28;20045;-47
2022/04/18 04:43:55;;;;;;;4.38;3.97;;;7.50;51.60;;;;;;5047109;28;20068;-48
2022/04/18 04:46:31;;;;;;;4.63;3.72;;;7.50;51.70;;;;;;5039074;28;20514;-50
2022/04/18 04:49:07;;;;;;;5.35;3.42;;;7.50;51.70;;;;;;5031088;28;20715;-47
2022/04/18 04:51:33;;;;;;;3.67;3.35;;;7.50;51.80;;;;;;5036939;28;20036;-46
2022/04/18 04:54:01;;;;;;;9.18;3.40;;;7.40;51.90;;;;;;5047560;28;20067;-46
2022/04/18 04:56:32;;;;;;;3.42;3.03;;;7.40;51.90;;;;;;5039084;28;20029;-47
2022/04/18 04:59:00;;;;;;;3.60;3.08;;;7.40;51.90;;;;;;5047752;28;20126;-49
2022/04/18 05:01:29;;;;;;;5.57;3.20;;;7.40;52.10;;;;;;5043269;28;20106;-49
2022/04/18 05:04:04;;;;;;;4.82;3.50;;;7.40;52.20;;;;;;5042993;28;20127;-50
2022/04/18 05:06:32;;;;;;;5.22;3.95;;;7.40;52.30;;;;;;5048571;28;20691;-46
2022/04/18 05:09:06;;;;;;;5.90;3.65;;;7.40;52.50;;;;;;5053994;28;20489;-51
2022/04/18 05:11:36;;;;;;;5.72;3.53;;;7.40;52.50;;;;;;5048223;28;20040;-51
2022/04/18 05:14:03;;;;;;;5.78;3.53;;;7.40;52.50;;;;;;5056703;28;20032;-47
2022/04/18 05:16:42;;;;;;;4.55;2.78;;;7.40;52.60;;;;;;5045755;28;20098;-46
2022/04/18 05:19:20;;;;;;;4.72;3.22;;;7.40;52.60;;;;;;5052781;28;20579;-51
2022/04/18 05:21:50;;;;;;;4.65;3.58;;;7.40;52.70;;;;;;5055232;28;20090;-52
2022/04/18 05:24:26;;;;;;;6.00;4.05;;;7.50;52.80;;;;;;5041407;28;20052;-48
2022/04/18 05:26:54;;;;;;;5.57;3.58;;;7.50;52.90;;;;;;5053078;28;20036;-47
2022/04/18 05:29:23;;;;;;;5.15;4.13;;;7.50;53.00;;;;;;5043429;28;20123;-47
2022/04/18 05:31:53;;;;;;;4.82;4.00;;;7.50;53.20;;;;;;5053611;28;20036;-51
2022/04/18 05:34:21;;;;;;;6.82;3.75;;;7.60;53.20;;;;;;5051293;28;20562;-52
2022/04/18 05:36:58;;;;;;;6.07;3.60;;;7.60;53.40;;;;;;5048800;28;20136;-51
2022/04/18 05:39:48;;;;;;;5.40;4.13;;;7.60;53.30;;;;;;5064584;28;20059;-52
2022/04/18 05:42:16;;;;;;;6.13;4.90;;;7.60;53.50;;;;;;5042192;28;20098;-53
2022/04/18 05:44:45;;;;;;;5.72;3.97;;;7.70;53.50;;;;;;5032864;28;20559;-52
2022/04/18 05:47:15;;;;;;;8.75;4.53;;;7.70;54.20;;;;;;5042743;28;20068;-51
2022/04/18 05:49:44;;;;;;;6.28;4.15;;;7.70;53.80;;;;;;5032090;28;20064;-51
2022/04/18 05:52:13;;;;;;;7.05;5.00;;;7.80;54.70;;;;;;5047086;28;20082;-53
2022/04/18 05:54:40;;;;;;;6.20;4.68;;;7.80;54.10;;;;;;5033765;28;20119;-53
2022/04/18 05:57:07;;;;;;;6.95;4.25;;;7.80;54.20;;;;;;5044376;28;20072;-53
2022/04/18 05:59:41;;;;;;;6.70;4.35;;;7.90;54.40;;;;;;5042397;28;20041;-52
2022/04/18 06:02:17;;;;;;;8.27;4.97;;;7.90;54.60;;;;;;5051057;28;20049;-52
2022/04/18 06:04:55;;;;;;;5.88;4.82;;;8.00;54.60;;;;;;5050864;28;20052;-52
2022/04/18 06:07:28;;;;;;;9.35;4.80;;;8.10;54.70;;;;;;5054609;28;20673;-51
2022/04/18 06:10:17;;;;;;;7.72;4.50;;;8.10;54.80;;;;;;5036663;28;20579;-51
2022/04/18 06:12:48;;;;;;;7.65;5.32;;;8.20;54.90;;;;;;5046084;28;20086;-52
2022/04/18 06:15:14;;;;;;;12.32;5.32;;;8.30;55.20;;;;;;5045243;28;20112;-52
2022/04/18 06:17:44;;;;;;;6.43;4.63;;;8.30;55.20;;;;;;5048248;28;20040;-51
2022/04/18 06:20:11;;;;;;;10.30;4.85;;;8.40;55.30;;;;;;5041107;28;20627;-48
2022/04/18 06:22:37;;;;;;;7.35;4.28;;;8.50;55.30;;;;;;4998596;28;20060;-50
2022/04/18 06:25:05;;;;;;;5.70;3.72;;;8.50;55.40;;;;;;5026142;28;20111;-51
2022/04/18 06:27:34;;;;;;;6.22;3.58;;;8.60;55.50;;;;;;5027303;28;20041;-52
2022/04/18 06:30:02;;;;;;;5.43;3.85;;;8.70;55.50;;;;;;5053514;28;20365;-49
2022/04/18 06:32:43;;;;;;;8.73;4.18;;;8.80;55.50;;;;;;5026275;28;20041;-48
2022/04/18 06:35:10;;;;;;;5.93;4.18;;;8.80;55.40;;;;;;5043566;28;20472;-53
2022/04/18 06:37:37;;;;;;;6.60;4.35;;;8.90;55.50;;;;;;5036632;28;20431;-52
2022/04/18 06:40:42;;;;;;;5.38;3.67;;;9.00;55.40;;;;;;5054572;28;20072;-49
2022/04/18 06:43:09;;;;;;;5.40;4.13;;;9.10;55.10;;;;;;5025815;28;20432;-49
2022/04/18 06:45:44;;;;;;;4.38;3.42;;;9.20;55.10;;;;;;5043788;28;20044;-51
2022/04/18 06:48:11;;;;;;;6.90;4.03;;;9.30;54.60;;;;;;5025568;28;20049;-51
2022/04/18 06:50:54;;;;;;;6.45;3.58;;;9.40;54.50;;;;;;5033242;28;20033;-49
2022/04/18 06:53:46;;;;;;;;;;;9.50;54.20;;;;;;5060540;28;20510;-48
2022/04/18 06:59:21;;;;;;;5.70;2.72;;;9.80;52.90;;;;;;5040889;28;20053;-52
2022/04/18 07:01:49;;;;;;;3.97;3.08;;;9.90;52.90;;;;;;5038230;28;20049;-51
2022/04/18 07:04:16;;;;;;;3.53;3.20;;;10.10;52.60;;;;;;5051462;28;20052;-50
2022/04/18 07:06:43;;;;;;;3.63;2.75;;;10.10;52.50;;;;;;5054588;28;20049;-50
2022/04/18 07:09:11;;;;;;;5.05;2.90;;;10.30;52.10;;;;;;5040499;28;20033;-49
2022/04/18 07:11:44;;;;;;;3.95;2.88;;;10.40;51.70;;;;;;5028543;28;20574;-52
2022/04/18 07:14:13;;;;;;;6.10;2.65;;;10.50;51.40;;;;;;5038578;28;20041;-53
2022/04/18 07:16:41;;;;;;;4.45;2.63;;;10.60;51.00;;;;;;5023823;28;20098;-51
2022/04/18 07:19:10;;;;;;;5.20;2.80;;;10.70;51.00;;;;;;5035244;28;20476;-50
2022/04/18 07:21:37;;;;;;;5.63;2.92;;;10.80;50.90;;;;;;5032712;28;20044;-49
2022/04/18 07:24:06;;;;;;;4.07;2.67;;;10.90;50.50;;;;;;5041145;28;20052;-50
2022/04/18 07:26:34;;;;;;;5.30;3.20;;;11.00;50.40;;;;;;5023624;28;20044;-49
2022/04/18 07:29:01;;;;;;;4.05;2.78;;;11.10;50.30;;;;;;5040217;28;20397;-51
2022/04/18 07:31:31;;;;;;;6.30;2.80;;;11.20;50.20;;;;;;5035563;28;20045;-52
2022/04/18 07:33:58;;;;;;;3.53;2.67;;;11.30;50.10;;;;;;5035081;28;20067;-53
2022/04/18 07:36:26;;;;;;;6.43;3.15;;;11.40;50.00;;;;;;5035498;28;20048;-52
2022/04/18 07:38:53;;;;;;;5.30;2.67;;;11.50;49.70;;;;;;5032394;28;20045;-52
2022/04/18 07:41:29;;;;;;;4.88;2.58;;;11.60;49.50;;;;;;5026480;28;20106;-50
2022/04/18 07:44:01;;;;;;;3.97;2.78;;;11.70;49.10;;;;;;5025814;28;20055;-52
2022/04/18 07:46:30;;;;;;;6.28;3.10;;;11.80;48.50;;;;;;5018701;28;20041;-53
2022/04/18 07:48:59;;;;;;;5.40;2.53;;;11.90;48.30;;;;;;5030026;28;20033;-52
2022/04/18 07:51:39;;;;;;;4.00;2.65;;;12.00;48.00;;;;;;5023135;28;20994;-53
2022/04/18 07:54:28;;;;;;;5.95;3.47;;;12.10;47.80;;;;;;5047365;28;20049;-53
2022/04/18 07:56:57;;;;;;;7.50;3.40;;;12.20;47.80;;;;;;5019089;28;20041;-48
2022/04/18 07:59:36;;;;;;;3.83;3.13;;;12.30;48.00;;;;;;5044207;28;20042;-53
2022/04/18 08:02:08;;;;;;;4.75;2.83;;;12.40;47.70;;;;;;5035741;28;20054;-52
2022/04/18 08:05:05;;;;;;;6.50;3.53;;;12.50;47.60;;;;;;4990076;28;20205;-53
2022/04/18 08:07:51;;;;;;;4.20;2.58;;;12.60;47.30;;;;;;5028493;28;20051;-53
2022/04/18 08:10:18;;;;;;;5.57;2.83;;;12.70;46.80;;;;;;5064854;28;20049;-53
2022/04/18 08:12:45;;;;;;;2.35;2.17;;;12.70;46.60;;;;;;5060423;22;20622;-49
2022/04/18 08:15:32;;;;;;;4.22;2.05;;;12.80;46.40;;;;;;5083219;28;20101;-49
2022/04/18 08:18:00;;;;;;;2.88;2.22;;;12.90;46.20;;;;;;5054865;28;20427;-46
2022/04/18 08:20:42;;;;;;;4.85;2.78;;;13.00;46.10;;;;;;5069962;28;20043;-48
2022/04/18 08:23:09;;;;;;;3.70;2.00;;;13.10;45.80;;;;;;5042144;28;20043;-50
2022/04/18 08:25:55;;;;;;;3.33;2.20;;;13.20;45.70;;;;;;5061477;28;20450;-50
2022/04/18 08:28:43;;;;;;;5.40;2.47;;;13.20;45.70;;;;;;5047996;28;20047;-47
2022/04/18 08:31:10;;;;;;;5.35;2.85;;;13.30;45.70;;;;;;5039510;28;20056;-46
2022/04/18 08:33:52;;;;;;;4.57;3.13;;;13.40;45.50;;;;;;5044208;28;20041;-47
2022/04/18 08:36:19;;;;;;;5.03;2.33;;;13.50;45.40;;;;;;5030703;28;20044;-46
2022/04/18 08:38:46;;;;;;;6.38;2.70;;;13.60;45.40;;;;;;5047219;28;20044;-46
2022/04/18 08:41:38;;;;;;;3.90;2.45;;;13.60;45.10;;;;;;5036831;28;20118;-46
2022/04/18 08:44:09;;;;;;;6.07;2.40;;;13.80;45.30;;;;;;5043764;28;20068;-48
2022/04/18 08:46:36;;;;;;;3.97;2.83;;;13.80;45.00;;;;;;5048929;28;20044;-45
2022/04/18 08:54:43;;;;;;;4.40;2.20;;;14.00;44.40;;;;;;5043906;28;20451;-46
2022/04/18 08:57:12;;;;;;;4.10;2.95;;;14.10;44.80;;;;;;5035107;28;20086;-46
2022/04/18 08:59:39;;;;;;;5.32;2.75;;;14.20;44.70;;;;;;5060719;28;20037;-47
2022/04/18 09:02:06;;;;;;;7.15;2.95;;;14.30;44.30;;;;;;5028444;28;20143;-45
2022/04/18 09:05:02;;;;;;;5.53;2.53;;;14.40;44.50;;;;;;5038860;28;20056;-45
2022/04/18 09:07:28;;;;;;;5.38;2.35;;;14.40;43.90;;;;;;5049010;28;20067;-46
2022/04/18 09:09:58;;;;;;;3.47;2.53;;;14.50;43.70;;;;;;5043879;28;20061;-46
2022/04/18 09:12:29;;;;;;;5.22;2.55;;;14.60;43.70;;;;;;5040527;28;20044;-46
2022/04/18 09:15:31;;;;;;;6.45;2.80;;;14.70;43.50;;;;;;5051796;28;20091;-46
2022/04/18 09:18:29;;;;;;;4.38;3.00;;;14.80;43.90;;;;;;5033022;28;20037;-46
2022/04/18 09:21:04;;;;;;;3.20;2.13;;;14.80;43.80;;;;;;5063406;28;20064;-45
2022/04/18 09:23:37;;;;;;;4.25;2.55;;;14.90;43.90;;;;;;5060253;28;20091;-46
2022/04/18 09:26:19;;;;;;;3.30;2.50;;;15.00;43.40;;;;;;5038868;28;20055;-46
2022/04/18 09:28:46;;;;;;;8.43;3.05;;;15.20;43.00;;;;;;5068373;28;20056;-45
2022/04/18 09:31:23;;;;;;;5.93;2.80;;;15.20;42.60;;;;;;5039991;28;20052;-48
2022/04/18 09:33:56;;;;;;;3.58;3.10;;;15.30;42.40;;;;;;5064050;28;20048;-46
2022/04/18 09:36:25;;;;;;;4.47;2.70;;;15.40;42.40;;;;;;5036061;28;20545;-46
2022/04/18 09:38:55;;;;;;;3.10;2.58;;;15.50;42.70;;;;;;5063751;28;20055;-46
2022/04/18 09:41:32;;;;;;;4.22;2.70;;;15.50;41.90;;;;;;5056088;28;21294;-46
2022/04/18 09:44:40;;;;;;;4.90;2.60;;;15.60;42.00;;;;;;4983501;28;20061;-45
2022/04/18 09:47:07;;;;;;;2.40;2.15;;;15.80;41.80;;;;;;4977128;28;20045;-45
2022/04/18 09:49:40;;;;;;;2.42;2.22;;;15.80;41.80;;;;;;4994063;28;20064;-47
2022/04/18 09:52:22;;;;;;;3.60;2.47;;;15.90;40.90;;;;;;5050357;28;20051;-46
2022/04/18 09:54:55;;;;;;;3.05;2.13;;;16.00;40.00;;;;;;5056913;28;20445;-47
2022/04/18 09:57:27;;;;;;;2.55;2.00;;;16.10;39.30;;;;;;5040843;28;20466;-46
2022/04/18 09:59:56;;;;;;;3.60;1.95;;;16.20;39.60;;;;;;5064690;28;20566;-46
2022/04/18 10:02:24;;;;;;;2.10;1.90;;;16.30;39.50;;;;;;5051898;28;20057;-45
2022/04/18 10:04:52;;;;;;;2.95;2.20;;;16.40;39.50;;;;;;5051379;28;20048;-47
2022/04/18 10:07:22;;;;;;;2.35;1.95;;;16.40;39.20;;;;;;5057448;28;20079;-46
2022/04/18 10:09:48;;;;;;;1.98;1.73;;;16.50;38.60;;;;;;5066189;28;20177;-46
2022/04/18 10:12:15;;;;;;;2.88;2.20;;;16.60;38.70;;;;;;5059300;28;20388;-46
2022/04/18 10:14:43;;;;;;;3.67;2.17;;;16.70;38.70;;;;;;5060636;28;20068;-46
2022/04/18 10:17:11;;;;;;;2.28;2.08;;;16.80;38.50;;;;;;5053351;28;20455;-48
2022/04/18 10:19:59;;;;;;;2.63;2.10;;;16.90;38.60;;;;;;5066187;28;20048;-50
2022/04/18 10:22:51;;;;;;;2.10;1.83;;;17.00;38.20;;;;;;5048322;28;20056;-47
2022/04/18 10:25:33;;;;;;;3.22;2.92;;;17.10;37.60;;;;;;5066919;28;20497;-49
2022/04/18 10:28:17;;;;;;;2.83;2.22;;;17.10;36.90;;;;;;5058677;28;20044;-46
2022/04/18 10:30:49;;;;;;;5.45;2.80;;;17.20;36.90;;;;;;5068867;28;20036;-49
2022/04/18 10:33:17;;;;;;;3.13;1.98;;;17.30;36.90;;;;;;5054295;28;20133;-47
2022/04/18 10:36:02;;;;;;;3.38;2.85;;;17.40;37.80;;;;;;5069703;28;20600;-48
2022/04/18 10:38:33;;;;;;;2.20;1.80;;;17.40;36.40;;;;;;5058938;28;20411;-51
2022/04/18 10:41:14;;;;;;;2.35;1.83;;;17.50;36.60;;;;;;5067746;28;20044;-45
2022/04/18 10:43:53;;;;;;;6.10;2.05;;;17.60;36.70;;;;;;5065853;28;20063;-45
2022/04/18 10:46:21;;;;;;;3.42;2.22;;;17.60;36.80;;;;;;5056638;28;20522;-46
2022/04/18 10:48:56;;;;;;;4.13;2.50;;;17.70;36.80;;;;;;5067288;28;20124;-46
2022/04/18 10:51:39;;;;;;;2.65;2.13;;;17.80;36.70;;;;;;5058336;28;20114;-48
2022/04/18 10:54:15;;;;;;;2.75;1.92;;;17.90;36.30;;;;;;5067770;28;20451;-49
2022/04/18 10:57:01;;;;;;;2.25;2.03;;;17.90;35.30;;;;;;5050010;28;20037;-46
2022/04/18 10:59:31;;;;;;;2.50;2.30;;;18.10;35.40;;;;;;5059038;28;20072;-48
2022/04/18 11:02:01;;;;;;;3.63;1.90;;;18.10;35.30;;;;;;5046143;28;20161;-49
2022/04/18 11:04:29;;;;;;;2.20;2.00;;;18.20;35.20;;;;;;5066970;28;20072;-46
2022/04/18 11:07:03;;;;;;;3.53;2.30;;;18.30;35.60;;;;;;5052723;28;20139;-47
2022/04/18 11:09:32;;;;;;;2.25;2.00;;;18.30;35.60;;;;;;5055831;28;20029;-49
2022/04/18 11:12:20;;;;;;;4.20;2.15;;;18.40;36.00;;;;;;5049979;28;20068;-46
2022/04/18 11:14:55;;;;;;;4.82;2.15;;;18.50;35.60;;;;;;5061643;28;20504;-46
2022/04/18 11:17:41;;;;;;;2.92;2.08;;;18.60;35.20;;;;;;5053406;28;20458;-46
2022/04/18 11:20:28;;;;;;;3.72;2.30;;;18.70;34.70;;;;;;5055142;28;20193;-47
2022/04/18 11:23:15;;;;;;;6.05;1.85;;;18.80;34.90;;;;;;5053518;28;20419;-48
2022/04/18 11:26:02;;;;;;;3.42;2.92;;;18.90;34.40;;;;;;5063236;28;20099;-50
2022/04/18 11:28:35;;;;;;;3.10;2.10;;;18.90;34.60;;;;;;5050871;28;20159;-46
2022/04/18 11:31:18;;;;;;;2.63;2.30;;;19.00;35.00;;;;;;5066710;28;20080;-49
2022/04/18 11:33:45;;;;;;;2.80;2.08;;;19.20;35.00;;;;;;5060390;28;20048;-46
2022/04/18 11:36:14;;;;;;;2.75;2.08;;;19.20;35.00;;;;;;5048821;28;20090;-48
2022/04/18 11:38:42;;;;;;;2.30;1.67;;;19.20;35.00;;;;;;5063633;28;20500;-48
2022/04/18 11:41:13;;;;;;;2.97;1.95;;;19.30;34.90;;;;;;5065101;28;20076;-47
2022/04/18 11:43:40;;;;;;;3.47;2.07;;;19.40;35.00;;;;;;5061636;28;20089;-45
2022/04/18 11:46:09;;;;;;;3.20;1.95;;;19.50;35.10;;;;;;5048076;28;20041;-47
2022/04/18 11:48:37;;;;;;;2.63;2.42;;;19.60;35.00;;;;;;5060083;28;20099;-48
2022/04/18 11:51:05;;;;;;;3.15;2.00;;;19.70;34.70;;;;;;5063327;28;20891;-46
2022/04/18 11:53:34;;;;;;;2.03;1.92;;;19.70;33.90;;;;;;5056742;28;20087;-47
2022/04/18 11:56:04;;;;;;;2.20;1.90;;;19.80;33.90;;;;;;5054066;28;20063;-48
2022/04/18 11:58:40;;;;;;;4.78;2.38;;;19.90;33.80;;;;;;5059148;28;20044;-47
2022/04/18 12:06:47;;;;;;;1.60;1.50;;;20.10;34.00;;;;;;5048466;28;20050;-46
2022/04/18 12:09:16;;;;;;;3.13;2.30;;;20.20;33.00;;;;;;5060159;28;20072;-50
2022/04/18 12:11:43;;;;;;;2.20;1.80;;;20.20;33.40;;;;;;5047392;28;20069;-47
2022/04/18 12:14:10;;;;;;;3.70;1.90;;;20.30;33.60;;;;;;5060246;28;20087;-48
2022/04/18 12:16:38;;;;;;;2.63;1.77;;;20.40;33.20;;;;;;5050808;28;20048;-50
2022/04/18 12:19:11;;;;;;;1.92;1.27;;;20.50;32.90;;;;;;5060093;28;20040;-49
2022/04/18 12:21:38;;;;;;;2.60;1.15;;;20.50;32.50;;;;;;5050667;28;20535;-46
2022/04/18 12:24:05;;;;;;;1.40;1.30;;;20.60;31.50;;;;;;5058832;28;20496;-46
2022/04/18 12:26:35;;;;;;;1.67;1.27;;;20.70;30.80;;;;;;5032518;28;20098;-47
2022/04/18 12:29:02;;;;;;;1.83;1.17;;;20.70;30.90;;;;;;5055320;28;20100;-47
2022/04/18 12:31:29;;;;;;;1.92;1.30;;;20.80;30.30;;;;;;5050163;28;20079;-47
2022/04/18 12:33:57;;;;;;;2.35;1.77;;;20.90;30.50;;;;;;5060980;28;20056;-47
2022/04/18 12:36:25;;;;;;;3.95;1.45;;;21.00;30.00;;;;;;5047374;28;20103;-48
2022/04/18 12:38:52;;;;;;;1.65;1.30;;;21.00;30.30;;;;;;5056162;28;20044;-48
2022/04/18 12:41:33;;;;;;;1.88;1.40;;;21.10;30.20;;;;;;5051100;28;20459;-46
2022/04/18 12:44:08;;;;;;;1.30;1.20;;;21.30;30.00;;;;;;5057704;28;20040;-47
2022/04/18 12:46:35;;;;;;;3.22;1.30;;;21.40;30.40;;;;;;5046134;28;20720;-47
2022/04/18 12:49:08;;;;;;;1.45;1.27;;;21.50;30.50;;;;;;5062389;28;20064;-47
2022/04/18 12:51:38;;;;;;;1.52;1.27;;;21.50;30.60;;;;;;5046425;28;20301;-48
2022/04/18 12:54:17;;;;;;;1.92;1.00;;;21.70;30.00;;;;;;5061322;28;20036;-47
2022/04/18 12:56:48;;;;;;;1.00;0.98;;;21.80;29.70;;;;;;5042644;28;20072;-47
2022/04/18 12:59:27;;;;;;;2.33;1.10;;;21.90;29.90;;;;;;5067232;28;20060;-46
2022/04/18 13:02:10;;;;;;;1.30;0.98;;;22.10;29.80;;;;;;5047008;28;20040;-46
2022/04/18 13:04:37;;;;;;;1.15;0.93;;;22.20;29.80;;;;;;5064243;28;20472;-48
2022/04/18 13:07:06;;;;;;;1.25;1.15;;;22.40;30.00;;;;;;5048237;28;20037;-45
2022/04/18 13:09:34;;;;;;;1.40;1.15;;;22.50;29.30;;;;;;5063950;28;20050;-46
2022/04/18 13:12:05;;;;;;;1.23;1.05;;;22.70;29.30;;;;;;5048068;28;20036;-49
2022/04/18 13:14:34;;;;;;;1.17;1.08;;;22.80;29.30;;;;;;5065883;28;20064;-48
2022/04/18 13:17:10;;;;;;;2.63;1.20;;;23.00;29.20;;;;;;5047680;28;20044;-46
2022/04/18 13:19:38;;;;;;;2.20;1.50;;;23.10;28.30;;;;;;5068003;28;20459;-50
2022/04/18 13:22:06;;;;;;;2.40;1.27;;;23.30;28.70;;;;;;5053714;28;20037;-48
2022/04/18 13:24:33;;;;;;;1.30;1.05;;;23.40;28.60;;;;;;5066787;28;20424;-46
2022/04/18 13:27:00;;;;;;;1.40;1.30;;;23.60;28.30;;;;;;5057671;28;20411;-46
2022/04/18 13:29:27;;;;;;;1.23;1.13;;;23.90;28.30;;;;;;5069264;28;20131;-45
2022/04/18 13:31:54;;;;;;;1.83;1.27;;;23.90;27.70;;;;;;5045177;28;20084;-49
2022/04/18 13:34:21;;;;;;;1.38;1.13;;;24.10;27.60;;;;;;5066923;28;20048;-50
2022/04/18 13:36:47;;;;;;;3.55;1.60;;;24.30;28.10;;;;;;5052714;28;20072;-50
2022/04/18 13:39:15;;;;;;;1.38;1.02;;;24.80;28.20;;;;;;5067001;28;20075;-45
2022/04/18 13:41:43;;;;;;;1.60;1.13;;;25.40;27.90;;;;;;5058108;28;20079;-48